• Join FlightAware (Why Join?)
  • Login
  • US Flag 
12:02PM EDT


 

Airport Tracker/Info


-or-


 

Live Flight TrackerFlight Track Log ✈ N56451 ✈ 14-Jul-2013 ✈ KAGC - 9D4

Flight Track Log - Related Links

Times and Time Zones

All times are in EDT time to prevent confusion due to time zone crossing. See the N56451 flight status page for this flight to view local times or setup timezone preferences in your user account.

Time Position Orientation Groundspeed Altitude Reporting Facility
EDT Latitude Longitude Course Direction KTS MPH feet Rate Location/Type
05:22PM 40.3653 -79.8883 63° Northeast 95 109 3,400  Level Cleveland Center
05:23PM 40.3650 -79.8500 91° East 109 125 4,000 540 Climbing Cleveland Center
05:24PM 40.3731 -79.8172 72° East 93 107 4,500 540 Climbing Cleveland Center
05:25PM 40.3007 -79.9313 66° East  Level FlightAware Approximate
05:25PM 40.3833 -79.7817 69° East 92 106 5,100  Level Cleveland Center
05:26PM 40.3149 -79.8886 66° East  Level FlightAware Approximate
05:26PM 40.3914 -79.7544 69° East 87 100 5,500  Level Cleveland Center
05:27PM 40.3308 -79.8471 63° Northeast  Level FlightAware Approximate
05:27PM 40.4039 -79.7269 59° Northeast 85 98 5,900  Level Cleveland Center
05:28PM 40.4119 -79.6997 69° East 85 98 6,300 420 Climbing Cleveland Center
05:29PM 40.4222 -79.6750 61° Northeast 86 99 6,800 360 Climbing Cleveland Center
05:30PM 40.4322 -79.6419 68° East 89 102 7,100 120 Climbing Cleveland Center
05:31PM 40.4425 -79.6064 69° East 114 131 7,100  Level Cleveland Center
05:32PM 40.4544 -79.5653 69° East 121 139 7,100  Level Cleveland Center
05:33PM 40.4647 -79.5297 69° East 118 136 7,100  Level Cleveland Center
05:34PM 40.4789 -79.4886 66° East 116 133 7,100  Level Cleveland Center
05:35PM 40.4931 -79.4447 67° East 120 138 7,100  Level Cleveland Center
05:36PM 40.5050 -79.4008 70° East 119 137 7,100  Level Cleveland Center
05:37PM 40.4942 -79.3656 112° Southeast 114 131 7,100  Level Cleveland Center
05:38PM 40.4792 -79.3275 117° Southeast 116 133 7,100  Level Cleveland Center
05:39PM 40.4664 -79.2894 114° Southeast 112 129 7,100 -60 Level Cleveland Center
05:40PM 40.4514 -79.2517 118° Southeast 118 136 7,000  Descending Cleveland Center
05:41PM 40.4383 -79.2136 114° Southeast 117 135 7,100  Climbing Cleveland Center
05:42PM 40.4275 -79.1703 108° East 119 137 7,000 -60 Descending Cleveland Center
05:43PM 40.4164 -79.1297 110° East 119 137 7,000  Level Cleveland Center
05:44PM 40.4056 -79.0917 110° East 118 136 7,100  Climbing Cleveland Center
05:45PM 40.3925 -79.0511 113° Southeast 121 139 7,100  Level Cleveland Center
05:46PM 40.3753 -79.0050 116° Southeast 122 140 7,100  Level Cleveland Center
05:47PM 40.3642 -78.9672 111° Southeast 121 139 7,100 -60 Level Cleveland Center
05:48PM 40.3492 -78.9267 116° Southeast 121 139 7,000  Descending Cleveland Center
05:49PM 40.3361 -78.8917 116° Southeast 122 140 7,100  Climbing Cleveland Center
05:50PM 40.3208 -78.8567 120° Southeast 119 137 7,100 -60 Level Cleveland Center
05:51PM 40.3097 -78.8133 109° East 117 135 7,000  Descending Cleveland Center
05:52PM 40.3092 -78.7669 91° East 119 137 7,100  Climbing Cleveland Center
05:53PM 40.3106 -78.7233 88° East 123 142 7,100  Level Cleveland Center
05:54PM 40.3158 -78.6717 82° East 126 145 7,100  Level Cleveland Center
05:55PM 40.3153 -78.6281 91° East 122 140 7,100  Level Cleveland Center
05:56PM 40.3144 -78.5844 91° East 122 140 7,100  Level Cleveland Center
05:57PM 40.3156 -78.5356 88° East 123 142 7,100  Level Cleveland Center
05:58PM 40.3147 -78.4919 91° East 123 142 7,100  Level Cleveland Center
05:59PM 40.3119 -78.4483 95° East 122 140 7,100 -60 Level Cleveland Center
06:00PM 40.3131 -78.4022 88° East 120 138 7,000 -60 Descending Cleveland Center
06:02PM 40.3122 -78.3531 91° East 120 138 7,000  Level Cleveland Center
06:03PM 40.3114 -78.3094 91° East 121 139 7,000  Level Cleveland Center
06:03PM 40.3106 -78.2742 92° East 120 138 7,000  Level Cleveland Center
06:04PM 40.3097 -78.2333 92° East 119 137 7,100  Climbing Cleveland Center
06:05PM 40.3067 -78.1900 95° East 119 137 7,100 -60 Level Cleveland Center
06:07PM 40.3078 -78.1408 88° East 120 138 7,000  Descending Cleveland Center
06:08PM 40.3069 -78.1000 92° East 117 135 7,100  Climbing Cleveland Center
06:09PM 40.3039 -78.0567 95° East 116 133 7,100  Level Cleveland Center
06:11PM 40.3021 -77.9668 91° East  Level FlightAware Approximate
06:18PM 40.3006 -77.6412 90° East  Level FlightAware Approximate
06:19PM 40.3006 -77.5947 90° East  Level FlightAware Approximate
06:20PM 40.3007 -77.5482 90° East  Level FlightAware Approximate
06:21PM 40.3007 -77.5017 90° East  Level FlightAware Approximate
06:22PM 40.3007 -77.4552 90° East  Level FlightAware Approximate
06:23PM 40.3007 -77.4087 90° East  Level FlightAware Approximate
06:24PM 40.3007 -77.3622 90° East  Level FlightAware Approximate
06:25PM 40.3006 -77.3157 90° East  Level FlightAware Approximate
06:26PM 40.3005 -77.2692 90° East  Level FlightAware Approximate
06:27PM 40.3004 -77.2226 90° East  Level FlightAware Approximate
06:28PM 40.3003 -77.1761 90° East  Level FlightAware Approximate
06:29PM 40.3002 -77.1296 90° East  Level FlightAware Approximate
06:30PM 40.3001 -77.0831 90° East  Level FlightAware Approximate
06:31PM 40.3022 -77.0367 85° East  Level FlightAware Approximate
06:32PM 40.3055 -76.9904 85° East  Level FlightAware Approximate
06:33PM 40.3088 -76.9441 85° East  Level FlightAware Approximate
06:34PM 40.3121 -76.8978 85° East  Level FlightAware Approximate
06:35PM 40.3154 -76.8515 85° East  Level FlightAware Approximate
06:36PM 40.3167 -76.8050 90° East  Level FlightAware Approximate
06:37PM 40.3167 -76.7585 90° East  Level FlightAware Approximate
06:38PM 40.3167 -76.7120 90° East  Level FlightAware Approximate
06:39PM 40.3167 -76.6655 90° East  Level FlightAware Approximate
06:40PM 40.3201 -76.6197 72° East  Level FlightAware Approximate
06:41PM 40.3311 -76.5755 72° East  Level FlightAware Approximate
06:42PM 40.3333 -76.5294 90° East  Level FlightAware Approximate
06:43PM 40.3333 -76.4828 90° East  Level FlightAware Approximate
06:44PM 40.3333 -76.4363 90° East  Level FlightAware Approximate
06:45PM 40.3353 -76.3901 75° East  Level FlightAware Approximate
06:46PM 40.3443 -76.3451 75° East  Level FlightAware Approximate
06:47PM 40.3521 -76.3296 75° East  Level Estimated
06:48PM 40.3521 -76.3296 75° East  Level Estimated
06:49PM 40.3521 -76.3296 75° East  Level Estimated
06:50PM 40.3521 -76.3296 75° East  Level Estimated
06:51PM 40.3521 -76.3296 75° East  Level Estimated